createdAt,value
2018-09-22T00:00:49.809Z,78.1
2018-09-22T00:02:49.915Z,78.0
2018-09-22T00:04:50.387Z,77.5
2018-09-22T00:06:50.452Z,77.6
2018-09-22T00:08:50.531Z,77.6
2018-09-22T00:10:50.522Z,77.2
2018-09-22T00:12:50.609Z,77.7
2018-09-22T00:14:50.606Z,77.6
2018-09-22T00:16:49.848Z,77.7
2018-09-22T00:18:49.948Z,77.5
2018-09-22T00:20:49.971Z,77.6
2018-09-22T00:22:50.048Z,77.7
2018-09-22T00:24:50.080Z,77.7
2018-09-22T00:26:50.409Z,77.1
2018-09-22T00:28:50.338Z,76.3
2018-09-22T00:30:50.415Z,76.3
2018-09-22T00:32:50.378Z,76.9
2018-09-22T00:34:50.669Z,75.9
2018-09-22T00:36:49.963Z,75.6
2018-09-22T00:38:50.077Z,75.6
2018-09-22T00:40:50.092Z,75.2
2018-09-22T00:42:50.108Z,75.5
2018-09-22T00:44:50.134Z,75.4
2018-09-22T00:46:50.306Z,74.8
2018-09-22T00:48:50.383Z,74.8
2018-09-22T00:50:50.300Z,74.4
2018-09-22T00:52:50.339Z,74.4
2018-09-22T00:54:50.319Z,74.2
2018-09-22T00:56:50.401Z,74.3
2018-09-22T00:58:50.450Z,74.7
2018-09-22T01:00:50.505Z,74.3
2018-09-22T01:02:50.464Z,74.2
2018-09-22T01:04:50.771Z,74.1
2018-09-22T01:06:50.015Z,74.3
2018-09-22T01:08:50.022Z,74.2
2018-09-22T01:10:49.992Z,74.1
2018-09-22T01:12:49.981Z,74.2
2018-09-22T01:14:49.951Z,74.2
2018-09-22T01:16:50.296Z,74.3
2018-09-22T01:18:50.250Z,74.0
2018-09-22T01:20:50.221Z,74.2
2018-09-22T01:22:50.292Z,75.0
2018-09-22T01:24:50.240Z,73.9
2018-09-22T01:26:50.403Z,73.5
2018-09-22T01:28:50.628Z,73.4
2018-09-22T01:30:50.575Z,74.0
2018-09-22T01:32:50.623Z,73.5
2018-09-22T01:34:49.862Z,73.1
2018-09-22T01:36:50.207Z,74.1
2018-09-22T01:38:50.178Z,73.5
2018-09-22T01:40:50.189Z,74.4
2018-09-22T01:42:50.252Z,74.9
2018-09-22T01:44:50.314Z,74.9
2018-09-22T01:46:50.618Z,76.6
2018-09-22T01:48:50.708Z,75.8
2018-09-22T01:50:50.631Z,75.7
2018-09-22T01:52:50.772Z,76.3
2018-09-22T01:54:50.707Z,78.0
2018-09-22T01:56:49.958Z,76.4
2018-09-22T01:58:50.071Z,76.8
2018-09-22T02:00:50.083Z,77.4
2018-09-22T02:02:50.091Z,77.0
2018-09-22T02:04:50.424Z,77.4
2018-09-22T02:06:50.597Z,77.1
2018-09-22T02:08:49.976Z,77.1
2018-09-22T02:10:49.990Z,78.0
2018-09-22T02:12:50.056Z,78.0
2018-09-22T02:14:50.020Z,78.2
2018-09-22T02:16:50.396Z,77.2
2018-09-22T02:18:50.335Z,77.3
2018-09-22T02:20:50.418Z,78.5
2018-09-22T02:22:50.458Z,78.4
2018-09-22T02:24:50.456Z,79.0
2018-09-22T02:26:50.542Z,77.7
2018-09-22T02:28:50.581Z,78.2
2018-09-22T02:30:50.589Z,78.2
2018-09-22T02:32:50.621Z,78.6
2018-09-22T02:34:50.084Z,78.9
2018-09-22T02:36:50.398Z,79.3
2018-09-22T02:38:50.440Z,79.4
2018-09-22T02:40:50.444Z,78.8
2018-09-22T02:42:50.457Z,79.1
2018-09-22T02:44:50.577Z,79.3
2018-09-22T02:46:50.759Z,79.5
2018-09-22T02:48:49.780Z,79.8
2018-09-22T02:50:50.780Z,80.2
2018-09-22T02:52:49.930Z,80.4
2018-09-22T02:54:50.012Z,80.6
2018-09-22T02:56:50.253Z,80.5
2018-09-22T02:58:50.258Z,80.3
2018-09-22T03:00:50.384Z,80.9
2018-09-22T03:02:50.436Z,81.1
2018-09-22T03:04:49.803Z,80.8
2018-09-22T03:06:50.703Z,81.5
2018-09-22T03:08:50.492Z,81.3
2018-09-22T03:10:50.518Z,81.4
2018-09-22T03:12:50.462Z,81.5
2018-09-22T03:14:50.447Z,81.7
2018-09-22T03:16:50.557Z,81.6
2018-09-22T03:18:50.569Z,82.5
2018-09-22T03:20:50.679Z,81.9
2018-09-22T03:22:50.778Z,81.9
2018-09-22T03:24:49.830Z,81.6
2018-09-22T03:26:50.094Z,81.8
2018-09-22T03:28:50.119Z,81.8
2018-09-22T03:30:50.126Z,81.5
2018-09-22T03:32:50.226Z,81.9
2018-09-22T03:34:50.665Z,82.0
2018-09-22T03:36:49.917Z,82.3
2018-09-22T03:38:49.976Z,82.3
2018-09-22T03:40:49.986Z,82.5
2018-09-22T03:42:50.096Z,82.6
2018-09-22T03:44:50.111Z,81.7
2018-09-22T03:46:50.357Z,82.5
2018-09-22T03:48:50.316Z,81.4
2018-09-22T03:50:50.235Z,81.3
2018-09-22T03:52:50.199Z,81.3
2018-09-22T03:54:50.260Z,81.5
2018-09-22T03:56:50.432Z,81.5
2018-09-22T04:00:50.090Z,80.6
2018-09-22T04:02:50.088Z,80.6
2018-09-22T04:04:50.371Z,80.8
2018-09-22T04:06:50.557Z,80.5
2018-09-22T04:08:50.561Z,80.2
2018-09-22T04:10:50.473Z,80.3
2018-09-22T04:12:50.501Z,80.3
2018-09-22T04:14:50.519Z,79.8
2018-09-22T04:16:50.752Z,80.1
2018-09-22T04:18:50.765Z,80.1
2018-09-22T04:20:49.845Z,79.9
2018-09-22T04:22:49.842Z,79.7
2018-09-22T04:24:49.839Z,79.2
2018-09-22T04:26:50.576Z,79.5
2018-09-22T04:28:50.555Z,78.8
2018-09-22T04:30:50.557Z,78.6
2018-09-22T04:32:50.549Z,78.1
2018-09-22T04:34:50.093Z,78.1
2018-09-22T04:36:50.226Z,78.1
2018-09-22T04:38:50.296Z,77.8
2018-09-22T04:40:50.388Z,77.8
2018-09-22T04:42:50.580Z,77.7
2018-09-22T04:44:50.538Z,77.8
2018-09-22T04:46:49.791Z,78.0
2018-09-22T04:48:49.864Z,78.3
2018-09-22T04:50:49.868Z,78.3
2018-09-22T04:52:50.094Z,77.7
2018-09-22T04:54:50.048Z,77.8
2018-09-22T04:56:50.189Z,77.8
2018-09-22T04:58:50.159Z,77.6
2018-09-22T05:00:50.158Z,77.3
2018-09-22T05:02:50.210Z,77.5
2018-09-22T05:04:50.572Z,77.2
2018-09-22T05:06:50.740Z,77.2
2018-09-22T05:08:50.772Z,76.3
2018-09-22T05:10:49.838Z,76.5
2018-09-22T05:12:49.811Z,76.1
2018-09-22T05:14:49.881Z,76.9
2018-09-22T05:16:50.111Z,77.3
2018-09-22T05:18:50.097Z,76.2
2018-09-22T05:20:50.049Z,75.9
2018-09-22T05:22:50.099Z,75.9
2018-09-22T05:24:50.663Z,76.5
2018-09-22T05:26:49.954Z,75.6
2018-09-22T05:28:49.992Z,76.6
2018-09-22T05:30:50.110Z,76.6
2018-09-22T05:32:50.179Z,76.0
2018-09-22T05:34:50.381Z,75.9
2018-09-22T05:36:49.958Z,75.8
2018-09-22T05:38:50.044Z,76.2
2018-09-22T05:40:50.118Z,75.9
2018-09-22T05:42:50.124Z,75.8
2018-09-22T05:44:50.162Z,76.2
2018-09-22T05:46:50.384Z,76.5
2018-09-22T05:48:50.608Z,76.5
2018-09-22T05:50:50.598Z,76.0
2018-09-22T05:52:50.683Z,75.4
2018-09-22T05:54:50.807Z,75.2
2018-09-22T05:56:50.229Z,75.0
2018-09-22T05:58:50.384Z,75.0
2018-09-22T06:00:50.353Z,74.3
2018-09-22T06:02:50.443Z,74.4
2018-09-22T06:04:49.873Z,74.0
2018-09-22T06:06:50.113Z,74.1
2018-09-22T06:08:50.085Z,74.2
2018-09-22T06:10:50.248Z,73.9
2018-09-22T06:12:50.195Z,73.7
2018-09-22T06:14:50.257Z,73.3
2018-09-22T06:16:50.436Z,74.0
2018-09-22T06:18:50.400Z,72.7
2018-09-22T06:20:50.436Z,72.6
2018-09-22T06:22:50.459Z,73.0
2018-09-22T06:24:50.506Z,72.6
2018-09-22T06:26:50.707Z,72.8
2018-09-22T06:28:51.088Z,71.8
2018-09-22T06:30:50.197Z,71.5
2018-09-22T06:32:50.214Z,70.8
2018-09-22T06:34:50.561Z,70.8
2018-09-22T06:36:50.710Z,70.6
2018-09-22T06:38:50.923Z,70.9
2018-09-22T06:40:50.059Z,70.6
2018-09-22T06:42:50.038Z,70.6
2018-09-22T06:44:50.086Z,70.2
2018-09-22T06:46:50.265Z,70.5
2018-09-22T06:48:50.314Z,70.0
2018-09-22T06:50:50.325Z,69.0
2018-09-22T06:52:50.370Z,69.4
2018-09-22T06:54:50.718Z,69.0
2018-09-22T06:56:49.866Z,69.0
2018-09-22T06:58:49.938Z,68.1
2018-09-22T07:00:50.097Z,68.2
2018-09-22T07:02:50.126Z,67.0
2018-09-22T07:04:50.430Z,67.8
2018-09-22T07:06:50.557Z,67.5
2018-09-22T07:08:50.469Z,66.5
2018-09-22T07:10:50.564Z,66.3
2018-09-22T07:12:49.792Z,66.9
2018-09-22T07:14:49.846Z,66.3
2018-09-22T07:16:50.117Z,65.2
2018-09-22T07:18:50.098Z,68.3
2018-09-22T07:20:50.184Z,64.5
2018-09-22T07:22:50.307Z,66
2018-09-22T07:24:50.191Z,66
2018-09-22T07:26:50.376Z,66
2018-09-22T07:28:50.353Z,65
2018-09-22T07:30:50.881Z,63.8
2018-09-22T07:32:50.037Z,63.2
2018-09-22T07:34:50.550Z,63.6
2018-09-22T07:36:50.812Z,63.6
2018-09-22T07:38:49.822Z,63.1
2018-09-22T07:40:49.906Z,60.9
2018-09-22T07:42:49.870Z,60.9
2018-09-22T07:44:49.946Z,62.6
2018-09-22T07:46:50.167Z,62.6
2018-09-22T07:48:50.324Z,61.7
2018-09-22T07:50:50.339Z,61.3
2018-09-22T07:52:50.344Z,61.6
2018-09-22T07:54:50.371Z,60.8
2018-09-22T07:56:50.535Z,60.8
2018-09-22T07:58:50.563Z,60.2
2018-09-22T08:00:50.633Z,60.5
2018-09-22T08:02:50.741Z,60.1
2018-09-22T08:04:49.972Z,60.2
2018-09-22T08:06:50.291Z,61.4
2018-09-22T08:08:50.313Z,59.9
2018-09-22T08:10:50.409Z,60.1
2018-09-22T08:12:50.647Z,60.2
2018-09-22T08:14:50.696Z,59.3
2018-09-22T08:16:49.877Z,60.3
2018-09-22T08:18:49.913Z,59.9
2018-09-22T08:20:49.920Z,59.4
2018-09-22T08:22:50.063Z,59.9
2018-09-22T08:24:50.033Z,59.5
2018-09-22T08:26:50.260Z,60.2
2018-09-22T08:28:50.283Z,59.6
2018-09-22T08:30:50.329Z,59.1
2018-09-22T08:32:50.290Z,58.8
2018-09-22T08:34:50.632Z,58.7
2018-09-22T08:36:51.188Z,58.7
2018-09-22T08:38:50.154Z,58.7
2018-09-22T08:40:50.378Z,58.0
2018-09-22T08:42:50.447Z,58.3
2018-09-22T08:44:50.748Z,58.7
2018-09-22T08:46:49.989Z,57.8
2018-09-22T08:48:50.031Z,57.4
2018-09-22T08:50:50.054Z,57.8
2018-09-22T08:52:50.043Z,57.5
2018-09-22T08:54:50.001Z,56.7
2018-09-22T08:56:50.161Z,56.9
2018-09-22T08:58:50.151Z,58.1
2018-09-22T09:00:50.159Z,57.0
2018-09-22T09:02:50.209Z,57.0
2018-09-22T09:04:50.658Z,57.2
2018-09-22T09:06:49.853Z,57.0
2018-09-22T09:08:49.887Z,56.4
2018-09-22T09:10:49.844Z,56.0
2018-09-22T09:12:50.107Z,55.6
2018-09-22T09:14:50.221Z,55.9
2018-09-22T09:16:50.414Z,56.6
2018-09-22T09:18:50.357Z,55.9
2018-09-22T09:20:50.356Z,56.6
2018-09-22T09:22:50.432Z,57.0
2018-09-22T09:24:50.458Z,56.2
2018-09-22T09:26:50.679Z,55.8
2018-09-22T09:28:50.659Z,58
2018-09-22T09:30:50.617Z,58
2018-09-22T09:32:50.601Z,58
2018-09-22T09:34:50.121Z,58
2018-09-22T09:36:50.309Z,58
2018-09-22T09:38:50.246Z,58
2018-09-22T09:40:50.269Z,56
2018-09-22T09:42:50.387Z,54.8
2018-09-22T09:44:50.384Z,57
2018-09-22T09:46:50.634Z,57
2018-09-22T09:48:50.746Z,56
2018-09-22T09:50:49.824Z,57
2018-09-22T09:52:49.808Z,54.9
2018-09-22T09:54:50.114Z,54.8
2018-09-22T09:56:50.377Z,53.6
2018-09-22T09:58:50.331Z,53.6
2018-09-22T10:00:50.340Z,53.7
2018-09-22T10:02:50.331Z,54.0
2018-09-22T10:04:50.657Z,52.3
2018-09-22T10:06:49.909Z,52.8
2018-09-22T10:08:49.861Z,52.2
2018-09-22T10:10:49.969Z,52.9
2018-09-22T10:12:49.928Z,52.8
2018-09-22T10:14:49.923Z,52.4
2018-09-22T10:16:50.156Z,52.2
2018-09-22T10:18:50.128Z,54.1
2018-09-22T10:20:50.151Z,55.0
2018-09-22T10:22:50.175Z,55.2
2018-09-22T10:24:50.286Z,54.0
2018-09-22T10:26:50.413Z,53.0
2018-09-22T10:28:50.951Z,52.7
2018-09-22T10:30:50.181Z,52.3
2018-09-22T10:32:50.183Z,51.5
2018-09-22T10:34:50.492Z,50.5
2018-09-22T10:36:49.803Z,51.4
2018-09-22T10:38:49.880Z,51.9
2018-09-22T10:40:49.868Z,54
2018-09-22T10:42:49.973Z,54
2018-09-22T10:44:49.988Z,54
2018-09-22T10:46:50.148Z,53
2018-09-22T10:48:50.254Z,53
2018-09-22T10:50:50.256Z,52
2018-09-22T10:52:51.273Z,52
2018-09-22T10:54:50.321Z,51
2018-09-22T10:56:50.515Z,52
2018-09-22T10:58:50.648Z,51
2018-09-22T11:00:50.777Z,51
2018-09-22T11:02:49.951Z,51
2018-09-22T11:04:50.289Z,51
2018-09-22T11:06:50.453Z,51
2018-09-22T11:08:50.475Z,51
2018-09-22T11:10:50.569Z,51
2018-09-22T11:12:50.636Z,51
2018-09-22T11:14:50.661Z,50
2018-09-22T11:16:49.821Z,50
2018-09-22T11:18:49.936Z,48.0
2018-09-22T11:20:49.952Z,50
2018-09-22T11:22:49.975Z,50
2018-09-22T11:24:50.103Z,50
2018-09-22T11:26:50.498Z,46.3
2018-09-22T11:28:50.600Z,45.8
2018-09-22T11:30:50.611Z,50
2018-09-22T11:32:50.735Z,50
2018-09-22T11:34:49.981Z,50
2018-09-22T11:36:50.397Z,45.7
2018-09-22T11:38:50.384Z,45.5
2018-09-22T11:40:50.399Z,50
2018-09-22T11:42:50.489Z,49
2018-09-22T11:44:50.533Z,49
2018-09-22T11:46:50.733Z,49
2018-09-22T11:48:49.936Z,48
2018-09-22T11:50:49.935Z,48
2018-09-22T11:52:50.038Z,46.5
2018-09-22T11:54:49.996Z,46.8
2018-09-22T11:56:50.313Z,46.8
2018-09-22T11:58:50.374Z,46.5
2018-09-22T12:00:50.407Z,49
2018-09-22T12:02:50.379Z,48
2018-09-22T12:04:50.771Z,48
2018-09-22T12:06:51.141Z,48
2018-09-22T12:08:50.082Z,48
2018-09-22T12:10:50.082Z,49
2018-09-22T12:12:50.111Z,48
2018-09-22T12:14:50.144Z,48
2018-09-22T12:16:50.321Z,48
2018-09-22T12:18:50.379Z,48
2018-09-22T12:20:50.379Z,49
2018-09-22T12:22:50.416Z,49
2018-09-22T12:24:50.415Z,49
2018-09-22T12:26:50.616Z,49
2018-09-22T12:28:50.692Z,49
2018-09-22T12:30:50.061Z,49
2018-09-22T12:32:50.373Z,47
2018-09-22T12:34:50.700Z,47
2018-09-22T12:36:49.940Z,47
2018-09-22T12:38:49.948Z,47
2018-09-22T12:40:49.938Z,46
2018-09-22T12:42:50.093Z,46
2018-09-22T12:44:50.218Z,46
2018-09-22T12:46:50.383Z,46
2018-09-22T12:48:50.341Z,47
2018-09-22T12:50:50.332Z,47
2018-09-22T12:52:50.336Z,47
2018-09-22T12:54:50.279Z,47
2018-09-22T12:56:50.504Z,47
2018-09-22T12:58:50.520Z,45
2018-09-22T13:00:50.592Z,46
2018-09-22T13:02:50.603Z,46
2018-09-22T13:04:49.889Z,46
2018-09-22T13:06:50.064Z,46
2018-09-22T13:08:50.085Z,46
2018-09-22T13:10:50.074Z,46
2018-09-22T13:12:50.072Z,45
2018-09-22T13:14:50.039Z,45
2018-09-22T13:16:50.326Z,45
2018-09-22T13:18:50.332Z,45
2018-09-22T13:20:50.311Z,45
2018-09-22T13:22:50.297Z,46
2018-09-22T13:24:50.286Z,46
2018-09-22T13:26:50.889Z,46
2018-09-22T13:28:50.006Z,45
2018-09-22T13:30:49.969Z,45
2018-09-22T13:32:50.071Z,45
2018-09-22T13:34:50.402Z,43
2018-09-22T13:36:50.622Z,44
2018-09-22T13:38:50.534Z,44
2018-09-22T13:40:50.570Z,44
2018-09-22T13:42:50.492Z,43
2018-09-22T13:44:50.507Z,44
2018-09-22T13:46:50.769Z,43
2018-09-22T13:48:49.944Z,44
2018-09-22T13:50:50.365Z,43
2018-09-22T13:52:50.470Z,43
2018-09-22T13:54:50.680Z,42
2018-09-22T13:56:49.801Z,42
2018-09-22T13:58:49.897Z,42
2018-09-22T14:00:49.934Z,41
2018-09-22T14:02:50.089Z,41
2018-09-22T14:04:50.322Z,42
2018-09-22T14:06:50.502Z,41
2018-09-22T14:08:50.466Z,42
2018-09-22T14:10:50.518Z,42
2018-09-22T14:12:50.448Z,41
2018-09-22T14:14:50.487Z,41
2018-09-22T14:16:50.654Z,42
2018-09-22T14:18:50.663Z,42
2018-09-22T14:20:50.639Z,41
2018-09-22T14:22:50.693Z,41
2018-09-22T14:24:50.623Z,41
2018-09-22T14:26:49.938Z,41
2018-09-22T14:28:50.391Z,41
2018-09-22T14:30:50.424Z,42
2018-09-22T14:32:50.571Z,41
2018-09-22T14:34:50.025Z,36.5
2018-09-22T14:36:50.278Z,36.4
2018-09-22T14:38:50.321Z,36.3
2018-09-22T14:40:50.308Z,36.6
2018-09-22T14:42:50.493Z,37.0
2018-09-22T14:44:50.610Z,36.6
2018-09-22T14:46:49.858Z,36.7
2018-09-22T14:48:49.921Z,36.6
2018-09-22T14:50:49.959Z,34.2
2018-09-22T14:52:50.071Z,34.1
2018-09-22T14:54:50.125Z,33.7
2018-09-22T14:56:50.269Z,33.8
2018-09-22T14:58:50.311Z,34.3
2018-09-22T15:00:50.324Z,33.9
2018-09-22T15:02:50.420Z,34.0
2018-09-22T15:04:50.757Z,34.1
2018-09-22T15:06:50.025Z,34.9
2018-09-22T15:08:50.070Z,34.9
2018-09-22T15:10:50.247Z,34.8
2018-09-22T15:12:50.326Z,33.6
2018-09-22T15:14:50.358Z,38
2018-09-22T15:16:50.641Z,38
2018-09-22T15:18:50.627Z,39
2018-09-22T15:20:49.846Z,34.9
2018-09-22T15:22:50.061Z,34.8
2018-09-22T15:24:50.109Z,34.6
2018-09-22T15:26:50.172Z,34.4
2018-09-22T15:28:50.148Z,38
2018-09-22T15:30:50.172Z,38
2018-09-22T15:32:50.120Z,33.4
2018-09-22T15:34:50.370Z,33.7
2018-09-22T15:36:50.813Z,34.3
2018-09-22T15:38:49.881Z,34.4
2018-09-22T15:40:49.931Z,34.8
2018-09-22T15:42:49.988Z,34.9
2018-09-22T15:44:50.106Z,35.2
2018-09-22T15:46:50.259Z,35.6
2018-09-22T15:48:50.362Z,35.7
2018-09-22T15:50:50.446Z,35.6
2018-09-22T15:52:50.391Z,36.0
2018-09-22T15:54:50.449Z,36.0
2018-09-22T15:56:49.980Z,36.2
2018-09-22T15:58:50.227Z,36.2
2018-09-22T16:00:50.654Z,36.0
2018-09-22T16:02:49.845Z,36.0
2018-09-22T16:04:50.209Z,34.9
2018-09-22T16:06:50.428Z,35.2
2018-09-22T16:08:50.875Z,35.2
2018-09-22T16:10:49.979Z,35.3
2018-09-22T16:12:49.948Z,35.2
2018-09-22T16:14:49.964Z,35.1
2018-09-22T16:16:50.368Z,35.3
2018-09-22T16:18:50.369Z,35.6
2018-09-22T16:20:50.305Z,35.8
2018-09-22T16:22:50.343Z,36.6
2018-09-22T16:24:50.328Z,36.8
2018-09-22T16:26:50.597Z,37.0
2018-09-22T16:28:50.702Z,37.0
2018-09-22T16:30:50.717Z,37.3
2018-09-22T16:32:49.847Z,37.5
2018-09-22T16:34:50.152Z,37.9
2018-09-22T16:36:50.333Z,37.9
2018-09-22T16:38:50.365Z,38.1
2018-09-22T16:40:50.416Z,38.3
2018-09-22T16:42:50.422Z,38.4
2018-09-22T16:44:50.525Z,38.6
2018-09-22T16:46:50.665Z,38.7
2018-09-22T16:48:50.817Z,38.7
2018-09-22T16:50:49.921Z,38.8
2018-09-22T16:52:50.041Z,38.9
2018-09-22T16:54:50.039Z,39.1
2018-09-22T16:56:50.375Z,39.2
2018-09-22T16:58:50.356Z,39.2
2018-09-22T17:00:50.388Z,39.5
2018-09-22T17:02:50.383Z,39.5
2018-09-22T17:04:49.800Z,39.8
2018-09-22T17:06:50.079Z,39.7
2018-09-22T17:08:50.142Z,40.0
2018-09-22T17:10:50.215Z,40.1
2018-09-22T17:12:50.194Z,40.2
2018-09-22T17:14:50.260Z,40.5
2018-09-22T17:16:50.567Z,40.5
2018-09-22T17:18:50.594Z,40.8
2018-09-22T17:20:50.649Z,40.8
2018-09-22T17:22:49.850Z,40.9
2018-09-22T17:24:49.865Z,40.9
2018-09-22T17:26:50.079Z,41.0
2018-09-22T17:28:50.423Z,41.1
2018-09-22T17:30:50.405Z,41.2
2018-09-22T17:32:50.458Z,41.4
2018-09-22T17:34:49.933Z,41.4
2018-09-22T17:36:50.216Z,41.7
2018-09-22T17:38:50.220Z,41.9
2018-09-22T17:40:50.359Z,41.9
2018-09-22T17:42:50.462Z,42.0
2018-09-22T17:44:50.530Z,42.0
2018-09-22T17:46:50.689Z,42.1
2018-09-22T17:48:49.839Z,42.1
2018-09-22T17:50:49.794Z,42.3
2018-09-22T17:52:49.964Z,42.5
2018-09-22T17:54:49.970Z,42.6
2018-09-22T17:56:50.203Z,42.8
2018-09-22T17:58:50.175Z,42.9
2018-09-22T18:00:50.168Z,43.2
2018-09-22T18:02:50.116Z,43.2
2018-09-22T18:04:50.324Z,43.3
2018-09-22T18:06:50.557Z,43.3
2018-09-22T18:08:50.513Z,43.3
2018-09-22T18:10:50.444Z,43.4
2018-09-22T18:12:50.416Z,43.6
2018-09-22T18:14:50.478Z,43.8
2018-09-22T18:16:51.343Z,43.8
2018-09-22T18:18:50.456Z,43.9
2018-09-22T18:20:50.475Z,43.9
2018-09-22T18:22:50.080Z,44.1
2018-09-22T18:24:50.058Z,44.5
2018-09-22T18:26:50.300Z,44.3
2018-09-22T18:28:50.293Z,44.4
2018-09-22T18:30:50.296Z,44.6
2018-09-22T18:32:50.277Z,44.5
2018-09-22T18:34:49.798Z,44.6
2018-09-22T18:36:50.092Z,44.6
2018-09-22T18:38:50.077Z,44.7
2018-09-22T18:40:50.147Z,44.9
2018-09-22T18:42:50.115Z,44.8
2018-09-22T18:44:50.087Z,45.0
2018-09-22T18:46:50.197Z,45.1
2018-09-22T18:48:50.138Z,45.0
2018-09-22T18:50:50.132Z,45.2
2018-09-22T18:52:50.151Z,45.5
2018-09-22T18:54:50.134Z,45.8
2018-09-22T18:56:50.322Z,46.7
2018-09-22T18:58:50.360Z,47.7
2018-09-22T19:00:50.395Z,49.6
2018-09-22T19:02:50.370Z,49.8
2018-09-22T19:04:49.897Z,51.2
2018-09-22T19:06:50.019Z,52.2
2018-09-22T19:08:50.006Z,52.8
2018-09-22T19:10:50.102Z,52.9
2018-09-22T19:12:50.328Z,53.6
2018-09-22T19:14:50.434Z,54.7
2018-09-22T19:16:50.536Z,53.7
2018-09-22T19:18:50.531Z,55.5
2018-09-22T19:20:50.574Z,55.6
2018-09-22T19:22:50.619Z,55.3
2018-09-22T19:24:50.597Z,56.7
2018-09-22T19:26:49.985Z,56.3
2018-09-22T19:28:50.047Z,54.9
2018-09-22T19:30:50.133Z,54.7
2018-09-22T19:32:50.164Z,53.9
2018-09-22T19:34:50.438Z,54.8
2018-09-22T19:36:50.600Z,54.3
2018-09-22T19:38:50.919Z,56.4
2018-09-22T19:40:50.202Z,55.4
2018-09-22T19:42:50.184Z,52.9
2018-09-22T19:44:50.507Z,51.1
2018-09-22T19:46:49.811Z,51.0
2018-09-22T19:48:49.923Z,51.3
2018-09-22T19:50:50.568Z,50.8
2018-09-22T19:52:50.889Z,51.2
2018-09-22T19:54:50.270Z,51.2
2018-09-22T19:56:50.325Z,50.7
2018-09-22T19:58:50.376Z,50.5
2018-09-22T20:00:50.399Z,50.9
2018-09-22T20:02:50.445Z,51.0
2018-09-22T20:04:50.800Z,51.0
2018-09-22T20:06:49.944Z,50.5
2018-09-22T20:08:50.103Z,50.4
2018-09-22T20:10:50.131Z,51.1
2018-09-22T20:12:50.107Z,51.1
2018-09-22T20:14:50.182Z,51.2
2018-09-22T20:16:50.346Z,50.5
2018-09-22T20:18:50.357Z,50.8
2018-09-22T20:20:50.370Z,51.1
2018-09-22T20:22:50.397Z,50.9
2018-09-22T20:24:50.349Z,50.8
2018-09-22T20:26:50.625Z,50.8
2018-09-22T20:28:50.633Z,50.6
2018-09-22T20:30:49.817Z,50.8
2018-09-22T20:32:49.804Z,50.9
2018-09-22T20:34:50.194Z,50.6
2018-09-22T20:36:50.393Z,50.8
2018-09-22T20:38:50.363Z,50.4
2018-09-22T20:40:50.401Z,50.3
2018-09-22T20:42:50.436Z,50.3
2018-09-22T20:44:50.539Z,50.0
2018-09-22T20:46:50.684Z,50.4
2018-09-22T20:48:50.680Z,50.2
2018-09-22T20:50:50.784Z,50.3
2018-09-22T20:52:49.815Z,51.0
2018-09-22T20:54:49.835Z,50.4
2018-09-22T20:56:50.303Z,50.4
2018-09-22T20:58:50.426Z,50.4
2018-09-22T21:00:50.416Z,50.3
2018-09-22T21:02:50.514Z,50.3
2018-09-22T21:04:49.922Z,50.2
2018-09-22T21:06:50.298Z,50.4
2018-09-22T21:08:50.285Z,50.6
2018-09-22T21:10:50.272Z,50.8
2018-09-22T21:12:50.261Z,50.8
2018-09-22T21:14:50.259Z,50.7
2018-09-22T21:16:50.364Z,50.8
2018-09-22T21:18:50.673Z,50.7
2018-09-22T21:20:50.055Z,50.9
2018-09-22T21:22:50.073Z,50.6
2018-09-22T21:24:50.059Z,50.7
2018-09-22T21:26:50.278Z,50.6
2018-09-22T21:28:50.349Z,50.6
2018-09-22T21:30:50.893Z,50.6
2018-09-22T21:32:50.053Z,50.6
2018-09-22T21:34:50.361Z,51.0
2018-09-22T21:36:50.775Z,51.0
2018-09-22T21:38:49.876Z,51.3
2018-09-22T21:40:49.946Z,52.4
2018-09-22T21:42:49.985Z,52.6
2018-09-22T21:44:50.097Z,51.7
2018-09-22T21:46:50.256Z,51.8
2018-09-22T21:48:50.275Z,52.1
2018-09-22T21:50:50.392Z,52.1
2018-09-22T21:52:50.418Z,52.4
2018-09-22T21:54:51.056Z,52.3
2018-09-22T21:56:50.292Z,52.3
2018-09-22T21:58:50.258Z,52.9
2018-09-22T22:00:50.224Z,53.0
2018-09-22T22:02:50.310Z,53.1
2018-09-22T22:04:50.653Z,53.8
2018-09-22T22:06:49.933Z,53.4
2018-09-22T22:08:49.962Z,53.5
2018-09-22T22:10:50.131Z,53.8
2018-09-22T22:12:50.175Z,54.7
2018-09-22T22:14:50.214Z,54.7
2018-09-22T22:16:50.426Z,54.7
2018-09-22T22:18:50.486Z,55.0
2018-09-22T22:20:50.543Z,55.5
2018-09-22T22:22:50.612Z,55.6
2018-09-22T22:24:50.661Z,56.3
2018-09-22T22:26:49.912Z,56.7
2018-09-22T22:28:49.934Z,57.5
2018-09-22T22:30:50.041Z,58.0
2018-09-22T22:32:50.076Z,58.7
2018-09-22T22:34:50.450Z,59.7
2018-09-22T22:36:50.734Z,61.3
2018-09-22T22:38:50.777Z,60.0
2018-09-22T22:40:49.882Z,59.5
2018-09-22T22:42:50.142Z,60.0
2018-09-22T22:44:50.092Z,60.0
2018-09-22T22:46:50.277Z,63.7
2018-09-22T22:48:50.395Z,63.3
2018-09-22T22:50:50.467Z,61.4
2018-09-22T22:52:50.427Z,62.4
2018-09-22T22:54:50.496Z,62.4
2018-09-22T22:56:50.775Z,65.5
2018-09-22T22:58:49.825Z,65.5
2018-09-22T23:00:49.854Z,67.5
2018-09-22T23:02:49.907Z,68.9
2018-09-22T23:04:50.298Z,69.7
2018-09-22T23:06:50.597Z,70.5
2018-09-22T23:08:50.759Z,70.5
2018-09-22T23:10:49.908Z,66.7
2018-09-22T23:12:50.054Z,66.0
2018-09-22T23:14:50.048Z,66.1
2018-09-22T23:16:50.260Z,65.9
2018-09-22T23:18:50.321Z,67.3
2018-09-22T23:20:50.433Z,68.6
2018-09-22T23:22:50.435Z,67.3
2018-09-22T23:24:50.472Z,67.3
2018-09-22T23:26:50.631Z,67.1
2018-09-22T23:28:50.668Z,67.5
2018-09-22T23:30:50.715Z,65.9
2018-09-22T23:32:50.769Z,65.9
2018-09-22T23:34:50.266Z,67.1
2018-09-22T23:36:50.437Z,66.6
2018-09-22T23:38:50.400Z,68.0
2018-09-22T23:40:50.430Z,67.6
2018-09-22T23:42:50.357Z,67.1
2018-09-22T23:44:50.404Z,67.1
2018-09-22T23:46:50.608Z,67.3
2018-09-22T23:48:50.625Z,67.5
2018-09-22T23:50:50.710Z,68.3
2018-09-22T23:52:50.657Z,68.0
2018-09-22T23:54:49.797Z,69.4
2018-09-22T23:56:50.372Z,70.5
2018-09-22T23:58:50.394Z,70.0
